Terminal Aerodrome Forecast
Issued by NWS Jacksonville, FL

Home | Current Version | Previous Version | Text Only | Print | Product List | Glossary On
Versions: 1 2 3 4 5 6 7 8 9 10 11 12 13 14 15 16 17 18 19 20 21 22 23
000
FTUS42 KJAX 301739
TAFJAX
TAF
KJAX 301739Z 3018/3118 08014G23KT 6SM SHRA SCT030 BKN045
      TEMPO 3018/3022 3SM SHRA BR SCT018 BKN025
     FM302300 08010KT P6SM VCSH SCT025 BKN040 OVC060
     FM310800 VRB06KT P6SM VCSH SCT015 OVC030
     FM311400 24008KT P6SM VCSH BKN035=

USA.gov is the U.S. government's official web portal to all federal, state and local government web resources and services.